createdAt,value
2023-05-19T00:00:02.379Z,100418.66
2023-05-19T00:00:48.512Z,100415.78
2023-05-19T00:01:23.260Z,100414.97
2023-05-19T00:01:56.723Z,100416.09
2023-05-19T00:02:34.024Z,100417.25
2023-05-19T00:03:09.236Z,100421.13
2023-05-19T00:03:52.809Z,100417.91
2023-05-19T00:04:28.342Z,100421.81
2023-05-19T00:05:02.266Z,100422.13
2023-05-19T00:05:36.818Z,100418.56
2023-05-19T00:06:12.772Z,100425.19
2023-05-19T00:06:51.105Z,100424.38
2023-05-19T00:07:33.438Z,100429.41
2023-05-19T00:08:06.963Z,100425.38
2023-05-19T00:08:39.378Z,100420.69
2023-05-19T00:09:14.893Z,100434.06
2023-05-19T00:09:47.822Z,100426.19
2023-05-19T00:10:20.898Z,100432.78
2023-05-19T00:10:56.369Z,100434.38
2023-05-19T00:11:29.739Z,100431.66
2023-05-19T00:12:02.494Z,100430.03
2023-05-19T00:12:38.744Z,100437.13
2023-05-19T00:13:11.635Z,100441.81
2023-05-19T00:13:48.443Z,100438.25
2023-05-19T00:14:23.878Z,100437.47
2023-05-19T00:14:56.638Z,100432.78
2023-05-19T00:15:29.552Z,100441.81
2023-05-19T00:16:02.389Z,100433.25
2023-05-19T00:16:38.140Z,100433.25
2023-05-19T00:17:11.034Z,100435.19
2023-05-19T00:17:43.242Z,100431.34
2023-05-19T00:18:18.281Z,100436.50
2023-05-19T00:18:50.552Z,100431.00
2023-05-19T00:19:25.145Z,100432.94
2023-05-19T00:20:00.141Z,100430.22
2023-05-19T00:20:32.633Z,100433.75
2023-05-19T00:21:05.057Z,100429.41
2023-05-19T00:21:41.171Z,100432.13
2023-05-19T00:22:13.469Z,100431.66
2023-05-19T00:22:48.302Z,100421.50
2023-05-19T00:23:23.130Z,100434.38
2023-05-19T00:23:55.870Z,100433.59
2023-05-19T00:24:30.978Z,100432.00
2023-05-19T00:25:03.481Z,100437.00
2023-05-19T00:25:35.929Z,100436.19
2023-05-19T00:26:10.702Z,100435.38
2023-05-19T00:26:44.217Z,100433.00
2023-05-19T00:27:16.454Z,100432.19
2023-05-19T00:27:51.264Z,100432.19
2023-05-19T00:28:23.543Z,100428.63
2023-05-19T00:28:55.760Z,100433.00
2023-05-19T00:29:28.147Z,100425.56
2023-05-19T00:30:02.956Z,100436.50
2023-05-19T00:30:35.273Z,100433.75
2023-05-19T00:31:07.611Z,100431.03
2023-05-19T00:31:42.387Z,100431.03
2023-05-19T00:32:15.929Z,100433.00
2023-05-19T00:32:48.219Z,100435.72
2023-05-19T00:33:23.113Z,100434.91
2023-05-19T00:33:55.412Z,100431.38
2023-05-19T00:34:30.202Z,100434.13
2023-05-19T00:35:02.396Z,100438.47
2023-05-19T00:35:34.662Z,100434.91
2023-05-19T00:36:10.503Z,100437.66
2023-05-19T00:36:42.678Z,100439.59
2023-05-19T00:37:15.279Z,100443.94
2023-05-19T00:37:52.944Z,100444.72
2023-05-19T00:38:25.134Z,100440.72
2023-05-19T00:38:57.397Z,100447.81
2023-05-19T00:39:29.575Z,100440.72
2023-05-19T00:40:05.803Z,100442.66
2023-05-19T00:40:38.298Z,100441.38
2023-05-19T00:41:11.176Z,100446.06
2023-05-19T00:41:43.615Z,100441.72
2023-05-19T00:42:18.499Z,100449.94
2023-05-19T00:42:50.812Z,100447.84
2023-05-19T00:43:23.012Z,100443.50
2023-05-19T00:43:58.337Z,100448.97
2023-05-19T00:44:30.692Z,100448.47
2023-05-19T00:45:02.880Z,100452.03
2023-05-19T00:45:38.253Z,100452.84
2023-05-19T00:46:11.322Z,100453.94
2023-05-19T00:46:43.664Z,100452.03
2023-05-19T00:47:18.662Z,100453.16
2023-05-19T00:47:51.320Z,100462.50
2023-05-19T00:48:23.638Z,100458.94
2023-05-19T00:48:55.810Z,100460.56
2023-05-19T00:49:30.592Z,100458.63
2023-05-19T00:50:02.937Z,100460.56
2023-05-19T00:50:35.448Z,100461.38
2023-05-19T00:51:07.856Z,100456.66
2023-05-19T00:51:44.053Z,100458.31
2023-05-19T00:52:16.363Z,100454.78
2023-05-19T00:52:51.500Z,100464.59
2023-05-19T00:53:27.446Z,100452.03
2023-05-19T00:53:59.856Z,100465.41
2023-05-19T00:54:32.898Z,100459.63
2023-05-19T00:55:10.023Z,100462.34
2023-05-19T00:55:43.350Z,100461.06
2023-05-19T00:56:17.788Z,100459.94
2023-05-19T00:56:52.807Z,100463.16
2023-05-19T00:57:26.216Z,100460.75
2023-05-19T00:57:58.742Z,100454.44
2023-05-19T00:58:36.140Z,100462.66
2023-05-19T00:59:09.107Z,100457.19
2023-05-19T00:59:41.433Z,100460.75
2023-05-19T01:00:17.687Z,100456.06
2023-05-19T01:00:50.836Z,100459.94
2023-05-19T01:01:23.578Z,100462.97
2023-05-19T01:01:58.678Z,100459.94
2023-05-19T01:02:32.609Z,100462.66
2023-05-19T01:03:11.645Z,100459.13
2023-05-19T01:03:48.211Z,100461.38
2023-05-19T01:04:21.958Z,100455.09
2023-05-19T01:04:56.433Z,100454.78
2023-05-19T01:05:31.430Z,100460.25
2023-05-19T01:06:05.420Z,100460.75
2023-05-19T01:06:38.241Z,100461.53
2023-05-19T01:07:12.676Z,100462.34
2023-05-19T01:07:47.716Z,100456.88
2023-05-19T01:08:22.773Z,100461.53
2023-05-19T01:08:55.112Z,100458.81
2023-05-19T01:09:30.882Z,100456.06
2023-05-19T01:10:03.521Z,100459.63
2023-05-19T01:10:35.931Z,100458.00
2023-05-19T01:11:11.266Z,100454.44
2023-05-19T01:11:43.484Z,100461.53
2023-05-19T01:12:16.242Z,100465.09
2023-05-19T01:12:51.906Z,100467.81
2023-05-19T01:13:24.303Z,100461.53
2023-05-19T01:13:56.778Z,100467.81
2023-05-19T01:14:31.932Z,100466.22
2023-05-19T01:15:06.870Z,100461.38
2023-05-19T01:15:50.967Z,100462.97
2023-05-19T01:16:33.336Z,100469.91
2023-05-19T01:17:15.335Z,100464.75
2023-05-19T01:17:56.369Z,100474.44
2023-05-19T01:18:44.741Z,100467.34
2023-05-19T01:19:39.337Z,100466.84
2023-05-19T01:20:23.000Z,100468.00
2023-05-19T01:21:06.631Z,100471.88
2023-05-19T01:22:23.314Z,100474.78
2023-05-19T01:23:43.219Z,100472.56
2023-05-19T01:24:47.954Z,100476.28
2023-05-19T01:25:50.212Z,100476.59
2023-05-19T01:27:03.836Z,100474.19
2023-05-19T01:28:16.535Z,100476.47
2023-05-19T01:29:10.433Z,100475.19
2023-05-19T01:30:00.565Z,100481.16
2023-05-19T01:30:36.366Z,100471.47
2023-05-19T01:31:14.413Z,100469.22
2023-05-19T01:31:48.179Z,100468.88
2023-05-19T01:32:24.123Z,100475.66
2023-05-19T01:33:03.748Z,100478.03
2023-05-19T01:33:38.123Z,100472.56
2023-05-19T01:34:13.691Z,100470.31
2023-05-19T01:34:51.801Z,100472.25
2023-05-19T01:35:26.321Z,100475.00
2023-05-19T01:36:00.392Z,100475.50
2023-05-19T01:36:36.419Z,100468.06
2023-05-19T01:37:09.937Z,100470.78
2023-05-19T01:37:43.233Z,100473.22
2023-05-19T01:38:21.515Z,100472.91
2023-05-19T01:38:57.032Z,100465.00
2023-05-19T01:39:29.936Z,100473.22
2023-05-19T01:40:06.498Z,100467.72
2023-05-19T01:40:40.624Z,100472.91
2023-05-19T01:41:13.278Z,100472.91
2023-05-19T01:41:49.690Z,100473.69
2023-05-19T01:42:23.842Z,100467.41
2023-05-19T01:42:58.353Z,100472.56
2023-05-19T01:43:34.192Z,100474.66
2023-05-19T01:44:06.820Z,100461.94
2023-05-19T01:44:39.628Z,100468.53
2023-05-19T01:45:15.450Z,100471.28
2023-05-19T01:45:51.282Z,100470.47
2023-05-19T01:46:27.105Z,100465.31
2023-05-19T01:47:00.483Z,100469.19
2023-05-19T01:47:33.295Z,100469.19
2023-05-19T01:48:08.531Z,100467.59
2023-05-19T01:48:48.293Z,100463.41
2023-05-19T01:49:20.678Z,100472.09
2023-05-19T01:49:52.882Z,100471.63
2023-05-19T01:50:28.166Z,100476.28
2023-05-19T01:51:00.821Z,100471.16
2023-05-19T01:51:33.045Z,100477.44
2023-05-19T01:52:08.483Z,100479.38
2023-05-19T01:52:40.716Z,100475.81
2023-05-19T01:53:13.266Z,100478.88
2023-05-19T01:53:48.091Z,100482.41
2023-05-19T01:54:20.339Z,100481.59
2023-05-19T01:54:52.579Z,100478.06
2023-05-19T01:55:28.383Z,100478.88
2023-05-19T01:56:00.956Z,100481.16
2023-05-19T01:56:42.178Z,100488.19
2023-05-19T01:57:24.912Z,100480.97
2023-05-19T01:58:10.144Z,100481.94
2023-05-19T01:58:45.696Z,100480.34
2023-05-19T01:59:30.311Z,100480.81
2023-05-19T02:00:15.960Z,100480.81
2023-05-19T02:01:03.474Z,100488.72
2023-05-19T02:01:56.146Z,100491.44
2023-05-19T02:02:38.525Z,100491.91
2023-05-19T02:03:21.863Z,100498.69
2023-05-19T02:04:15.969Z,100494.00
2023-05-19T02:04:54.977Z,100488.84
2023-05-19T02:05:35.421Z,100489.34
2023-05-19T02:06:15.768Z,100492.41
2023-05-19T02:06:54.374Z,100490.78
2023-05-19T02:07:40.056Z,100484.19
2023-05-19T02:08:21.066Z,100485.97
2023-05-19T02:08:58.991Z,100484.84
2023-05-19T02:09:42.536Z,100487.59
2023-05-19T02:10:19.593Z,100489.19
2023-05-19T02:10:57.909Z,100485.31
2023-05-19T02:11:39.871Z,100489.69
2023-05-19T02:12:19.708Z,100485.81
2023-05-19T02:12:54.293Z,100487.41
2023-05-19T02:13:34.286Z,100485.16
2023-05-19T02:14:11.433Z,100481.63
2023-05-19T02:14:52.939Z,100493.88
2023-05-19T02:15:26.763Z,100483.22
2023-05-19T02:16:05.714Z,100495.78
2023-05-19T02:16:42.456Z,100485.66
2023-05-19T02:17:18.186Z,100491.91
2023-05-19T02:17:54.674Z,100483.38
2023-05-19T02:18:30.211Z,100494.63
2023-05-19T02:19:02.559Z,100495.78
2023-05-19T02:19:37.369Z,100491.91
2023-05-19T02:20:13.599Z,100496.25
2023-05-19T02:20:45.790Z,100493.88
2023-05-19T02:21:17.992Z,100495.13
2023-05-19T02:21:53.190Z,100491.28
2023-05-19T02:22:27.229Z,100492.41
2023-05-19T02:22:59.422Z,100498.69
2023-05-19T02:23:34.431Z,100485.81
2023-05-19T02:24:07.457Z,100486.94
2023-05-19T02:24:41.599Z,100494.81
2023-05-19T02:25:16.860Z,100492.09
2023-05-19T02:25:49.202Z,100491.28
2023-05-19T02:26:21.990Z,100497.56
2023-05-19T02:26:57.419Z,100493.69
2023-05-19T02:27:30.203Z,100493.22
2023-05-19T02:28:02.406Z,100492.09
2023-05-19T02:28:37.793Z,100492.09
2023-05-19T02:29:10.151Z,100483.88
2023-05-19T02:29:42.479Z,100489.34
2023-05-19T02:30:18.718Z,100490.94
2023-05-19T02:30:50.929Z,100498.03
2023-05-19T02:31:25.778Z,100497.22
2023-05-19T02:32:00.586Z,100492.91
2023-05-19T02:32:32.958Z,100493.69
2023-05-19T02:33:06.739Z,100490.94
2023-05-19T02:33:39.073Z,100494.47
2023-05-19T02:34:13.845Z,100495.28
2023-05-19T02:34:46.130Z,100503.03
2023-05-19T02:35:18.676Z,100494.81
2023-05-19T02:35:53.670Z,100493.69
2023-05-19T02:36:26.890Z,100490.16
2023-05-19T02:36:59.092Z,100496.41
2023-05-19T02:37:35.564Z,100490.94
2023-05-19T02:38:07.764Z,100494.81
2023-05-19T02:38:42.596Z,100502.22
2023-05-19T02:39:14.810Z,100498.19
2023-05-19T02:39:47.086Z,100491.13
2023-05-19T02:40:22.360Z,100497.38
2023-05-19T02:40:55.120Z,100491.91
2023-05-19T02:41:27.429Z,100496.59
2023-05-19T02:42:02.357Z,100499.00
2023-05-19T02:42:34.618Z,100499.34
2023-05-19T02:43:07.088Z,100505.59
2023-05-19T02:43:42.057Z,100500.13
2023-05-19T02:44:14.399Z,100501.28
2023-05-19T02:44:46.743Z,100503.66
2023-05-19T02:45:21.538Z,100504.47
2023-05-19T02:45:53.754Z,100504.47
2023-05-19T02:46:28.826Z,100496.91
2023-05-19T02:47:03.642Z,100511.88
2023-05-19T02:47:37.234Z,100506.41
2023-05-19T02:48:09.967Z,100502.84
2023-05-19T02:48:42.165Z,100508.00
2023-05-19T02:49:16.983Z,100513.47
2023-05-19T02:49:49.268Z,100499.00
2023-05-19T02:50:22.699Z,100507.19
2023-05-19T02:50:57.476Z,100504.81
2023-05-19T02:51:29.703Z,100503.50
2023-05-19T02:52:02.404Z,100508.81
2023-05-19T02:52:34.801Z,100506.75
2023-05-19T02:53:09.914Z,100500.78
2023-05-19T02:53:42.105Z,100501.59
2023-05-19T02:54:14.289Z,100510.59
2023-05-19T02:54:46.561Z,100511.06
2023-05-19T02:55:21.561Z,100507.22
2023-05-19T02:55:53.986Z,100506.75
2023-05-19T02:56:26.628Z,100506.75
2023-05-19T02:56:58.956Z,100503.50
2023-05-19T02:57:34.487Z,100505.13
2023-05-19T02:58:06.834Z,100506.25
2023-05-19T02:58:39.676Z,100513.34
2023-05-19T02:59:14.521Z,100514.97
2023-05-19T02:59:46.715Z,100512.84
2023-05-19T03:00:19.641Z,100512.84
2023-05-19T03:00:52.478Z,100516.69
2023-05-19T03:01:30.014Z,100508.84
2023-05-19T03:02:03.253Z,100514.63
2023-05-19T03:02:35.710Z,100507.53
2023-05-19T03:03:10.757Z,100516.53
2023-05-19T03:03:43.141Z,100518.47
2023-05-19T03:04:15.513Z,100519.28
2023-05-19T03:04:50.283Z,100518.47
2023-05-19T03:05:22.507Z,100522.81
2023-05-19T03:05:54.863Z,100511.56
2023-05-19T03:06:29.721Z,100523.31
2023-05-19T03:07:02.445Z,100513.97
2023-05-19T03:07:35.214Z,100512.84
2023-05-19T03:08:10.081Z,100509.78
2023-05-19T03:08:42.500Z,100523.47
2023-05-19T03:09:15.459Z,100517.19
2023-05-19T03:09:50.545Z,100523.47
2023-05-19T03:10:22.782Z,100525.72
2023-05-19T03:10:55.057Z,100521.06
2023-05-19T03:11:27.366Z,100521.06
2023-05-19T03:12:04.296Z,100522.97
2023-05-19T03:12:37.954Z,100526.53
2023-05-19T03:13:10.118Z,100521.06
2023-05-19T03:13:45.041Z,100527.31
2023-05-19T03:14:18.897Z,100519.44
2023-05-19T03:14:51.475Z,100515.44
2023-05-19T03:15:26.228Z,100517.69
2023-05-19T03:15:59.422Z,100522.66
2023-05-19T03:16:34.321Z,100516.38
2023-05-19T03:17:10.900Z,100511.56
2023-05-19T03:17:43.506Z,100519.78
2023-05-19T03:18:16.834Z,100514.31
2023-05-19T03:18:51.671Z,100515.13
2023-05-19T03:19:23.958Z,100510.44
2023-05-19T03:19:56.206Z,100515.94
2023-05-19T03:20:31.232Z,100515.94
2023-05-19T03:21:04.007Z,100512.38
2023-05-19T03:21:36.866Z,100506.91
2023-05-19T03:22:11.833Z,100515.94
2023-05-19T03:22:44.102Z,100510.44
2023-05-19T03:23:16.553Z,100515.59
2023-05-19T03:23:51.464Z,100521.88
2023-05-19T03:24:24.169Z,100524.59
2023-05-19T03:24:56.363Z,100518.00
2023-05-19T03:25:31.135Z,100514.47
2023-05-19T03:26:04.448Z,100518.00
2023-05-19T03:26:36.638Z,100513.34
2023-05-19T03:27:12.025Z,100518.47
2023-05-19T03:27:44.276Z,100518.00
2023-05-19T03:28:17.339Z,100519.13
2023-05-19T03:28:52.149Z,100523.47
2023-05-19T03:29:24.708Z,100516.06
2023-05-19T03:29:57.126Z,100524.75
2023-05-19T03:30:32.567Z,100523.63
2023-05-19T03:31:21.942Z,100517.19
2023-05-19T03:32:00.049Z,100521.22
2023-05-19T03:32:33.161Z,100528.28
2023-05-19T03:33:05.700Z,100527.97
2023-05-19T03:33:40.680Z,100527.66
2023-05-19T03:34:12.961Z,100530.38
2023-05-19T03:34:45.669Z,100531.19
2023-05-19T03:35:20.833Z,100524.59
2023-05-19T03:35:53.210Z,100528.94
2023-05-19T03:36:32.282Z,100536.84
2023-05-19T03:37:05.621Z,100539.09
2023-05-19T03:37:39.210Z,100536.50
2023-05-19T03:38:14.008Z,100537.81
2023-05-19T03:38:53.104Z,100533.44
2023-05-19T03:39:25.363Z,100542.94
2023-05-19T03:40:00.405Z,100545.38
2023-05-19T03:40:33.017Z,100539.88
2023-05-19T03:41:10.476Z,100528.94
2023-05-19T03:41:45.238Z,100547.44
2023-05-19T03:42:17.621Z,100537.31
2023-05-19T03:42:49.945Z,100539.72
2023-05-19T03:43:24.895Z,100536.69
2023-05-19T03:44:02.032Z,100540.53
2023-05-19T03:44:34.358Z,100534.72
2023-05-19T03:45:10.578Z,100541.50
2023-05-19T03:45:43.139Z,100536.84
2023-05-19T03:46:37.964Z,100550.03
2023-05-19T03:47:16.204Z,100540.69
2023-05-19T03:47:51.287Z,100541.50
2023-05-19T03:48:45.554Z,100542.94
2023-05-19T03:49:38.109Z,100540.53
2023-05-19T03:50:44.938Z,100542.78
2023-05-19T03:51:30.169Z,100544.72
2023-05-19T03:52:13.184Z,100545.50
2023-05-19T03:52:58.664Z,100549.38
2023-05-19T03:53:36.757Z,100550.19
2023-05-19T03:54:11.581Z,100547.94
2023-05-19T03:54:43.980Z,100539.72
2023-05-19T03:55:16.580Z,100548.41
2023-05-19T03:55:51.465Z,100537.47
2023-05-19T03:56:25.234Z,100550.38
2023-05-19T03:56:57.720Z,100542.16
2023-05-19T03:57:33.764Z,100551.16
2023-05-19T03:58:06.612Z,100534.25
2023-05-19T03:58:40.936Z,100552.28
2023-05-19T03:59:16.382Z,100539.72
2023-05-19T03:59:48.619Z,100538.13
2023-05-19T04:00:20.845Z,100544.41
2023-05-19T04:00:55.622Z,100536.50
2023-05-19T04:01:27.867Z,100541.16
2023-05-19T04:02:00.053Z,100550.53
2023-05-19T04:02:37.543Z,100543.13
2023-05-19T04:03:10.193Z,100547.28
2023-05-19T04:03:45.082Z,100543.75
2023-05-19T04:04:17.399Z,100546.47
2023-05-19T04:04:51.415Z,100541.81
2023-05-19T04:05:26.284Z,100542.94
2023-05-19T04:05:59.294Z,100542.63
2023-05-19T04:06:31.548Z,100543.44
2023-05-19T04:07:04.521Z,100542.63
2023-05-19T04:07:39.349Z,100541.50
2023-05-19T04:08:11.661Z,100544.25
2023-05-19T04:08:44.677Z,100547.78
2023-05-19T04:09:20.788Z,100542.63
2023-05-19T04:09:52.994Z,100550.03
2023-05-19T04:10:25.918Z,100549.22
2023-05-19T04:11:02.646Z,100545.66
2023-05-19T04:11:35.158Z,100550.34
2023-05-19T04:12:08.166Z,100544.88
2023-05-19T04:12:43.095Z,100553.88
2023-05-19T04:13:15.399Z,100553.56
2023-05-19T04:13:47.596Z,100554.38
2023-05-19T04:14:22.697Z,100552.44
2023-05-19T04:14:54.862Z,100558.72
2023-05-19T04:15:27.195Z,100552.91
2023-05-19T04:16:02.230Z,100555.66
2023-05-19T04:16:35.021Z,100553.72
2023-05-19T04:17:08.648Z,100557.28
2023-05-19T04:17:46.280Z,100551.00
2023-05-19T04:18:18.533Z,100563.88
2023-05-19T04:18:50.899Z,100566.59
2023-05-19T04:19:25.831Z,100560.00
2023-05-19T04:19:58.145Z,100562.44
2023-05-19T04:20:30.409Z,100558.88
2023-05-19T04:21:05.296Z,100565.63
2023-05-19T04:21:37.531Z,100562.91
2023-05-19T04:22:10.218Z,100566.44
2023-05-19T04:22:45.088Z,100563.72
2023-05-19T04:23:17.316Z,100563.41
2023-05-19T04:23:50.083Z,100562.59
2023-05-19T04:24:25.069Z,100566.94
2023-05-19T04:24:57.295Z,100573.53
2023-05-19T04:25:29.841Z,100576.28
2023-05-19T04:26:06.935Z,100566.44
2023-05-19T04:26:42.676Z,100571.44
2023-05-19T04:27:16.633Z,100565.47
2023-05-19T04:27:48.984Z,100569.34
2023-05-19T04:28:24.456Z,100574.00
2023-05-19T04:28:56.918Z,100582.56
2023-05-19T04:29:30.213Z,100573.53
2023-05-19T04:30:05.163Z,100578.19
2023-05-19T04:30:38.806Z,100576.56
2023-05-19T04:31:12.929Z,100576.91
2023-05-19T04:31:47.855Z,100576.91
2023-05-19T04:32:20.178Z,100578.03
2023-05-19T04:32:58.296Z,100586.25
2023-05-19T04:33:34.230Z,100581.91
2023-05-19T04:34:08.128Z,100575.94
2023-05-19T04:34:40.686Z,100572.72
2023-05-19T04:35:17.837Z,100580.13
2023-05-19T04:35:50.798Z,100575.78
2023-05-19T04:37:46.200Z,100583.16
2023-05-19T04:38:22.398Z,100576.09
2023-05-19T04:39:02.530Z,100583.16
2023-05-19T04:39:39.099Z,100581.19
2023-05-19T04:40:12.847Z,100587.47
2023-05-19T04:40:46.454Z,100584.09
2023-05-19T04:41:21.268Z,100582.69
2023-05-19T04:41:54.363Z,100585.91
2023-05-19T04:42:30.878Z,100580.94
2023-05-19T04:43:09.659Z,100579.31
2023-05-19T04:43:44.716Z,100582.53
2023-05-19T04:44:20.923Z,100585.28
2023-05-19T04:44:55.769Z,100588.00
2023-05-19T04:45:30.409Z,100587.66
2023-05-19T04:46:09.259Z,100587.66
2023-05-19T04:46:42.915Z,100591.22
2023-05-19T04:47:15.807Z,100583.50
2023-05-19T04:47:50.910Z,100588.16
2023-05-19T04:48:26.230Z,100582.69
2023-05-19T04:49:01.457Z,100587.06
2023-05-19T04:49:38.962Z,100585.09
2023-05-19T04:50:11.773Z,100578.84
2023-05-19T04:50:44.696Z,100586.72
2023-05-19T04:51:20.075Z,100578.19
2023-05-19T04:51:55.514Z,100582.84
2023-05-19T04:52:31.033Z,100577.38
2023-05-19T04:53:06.154Z,100578.66
2023-05-19T04:53:40.361Z,100580.63
2023-05-19T04:54:14.721Z,100571.59
2023-05-19T04:54:49.550Z,100580.28
2023-05-19T04:55:22.172Z,100578.66
2023-05-19T04:55:55.637Z,100584.94
2023-05-19T04:56:30.640Z,100581.41
2023-05-19T04:57:03.126Z,100584.94
2023-05-19T04:57:40.449Z,100584.94
2023-05-19T04:58:12.923Z,100590.41
2023-05-19T04:58:45.151Z,100581.09
2023-05-19T04:59:20.260Z,100592.84
2023-05-19T04:59:53.625Z,100586.56
2023-05-19T05:00:26.325Z,100586.56
2023-05-19T05:01:06.253Z,100590.41
2023-05-19T05:01:40.553Z,100587.69
2023-05-19T05:02:14.445Z,100587.69
2023-05-19T05:02:50.286Z,100583.81
2023-05-19T05:03:28.364Z,100587.38
2023-05-19T05:04:03.003Z,100581.91
2023-05-19T05:04:42.706Z,100586.25
2023-05-19T05:05:15.148Z,100587.06
2023-05-19T05:05:47.399Z,100585.91
2023-05-19T05:06:22.327Z,100590.25
2023-05-19T05:06:54.577Z,100594.13
2023-05-19T05:07:28.911Z,100587.53
2023-05-19T05:08:04.536Z,100586.72
2023-05-19T05:08:41.640Z,100587.06
2023-05-19T05:09:14.518Z,100586.41
2023-05-19T05:09:49.303Z,100589.63
2023-05-19T05:10:22.406Z,100589.63
2023-05-19T05:10:55.705Z,100589.28
2023-05-19T05:11:31.454Z,100593.66
2023-05-19T05:12:04.602Z,100591.72
2023-05-19T05:12:37.493Z,100594.47
2023-05-19T05:13:13.706Z,100593.34
2023-05-19T05:13:46.672Z,100592.84
2023-05-19T05:14:20.305Z,100595.56
2023-05-19T05:14:56.860Z,100596.69
2023-05-19T05:15:30.126Z,100593.97
2023-05-19T05:16:06.795Z,100588.50
2023-05-19T05:16:42.428Z,100596.38
2023-05-19T05:17:18.040Z,100597.19
2023-05-19T05:17:51.132Z,100598.81
2023-05-19T05:18:27.140Z,100596.88
2023-05-19T05:19:02.773Z,100597.66
2023-05-19T05:19:38.536Z,100595.28
2023-05-19T05:20:13.352Z,100594.16
2023-05-19T05:20:47.266Z,100594.16
2023-05-19T05:21:24.055Z,100596.06
2023-05-19T05:21:57.547Z,100599.63
2023-05-19T05:22:30.829Z,100593.81
2023-05-19T05:23:06.976Z,100597.66
2023-05-19T05:23:40.159Z,100600.41
2023-05-19T05:24:13.693Z,100601.22
2023-05-19T05:24:53.105Z,100603.13
2023-05-19T05:25:26.019Z,100602.34
2023-05-19T05:25:58.952Z,100603.13
2023-05-19T05:26:37.162Z,100606.22
2023-05-19T05:27:10.462Z,100606.22
2023-05-19T05:27:43.024Z,100605.09
2023-05-19T05:28:18.043Z,100612.97
2023-05-19T05:28:51.483Z,100607.50
2023-05-19T05:29:23.839Z,100609.91
2023-05-19T05:29:59.345Z,100614.59
2023-05-19T05:30:34.217Z,100611.03
2023-05-19T05:31:06.461Z,100611.03
2023-05-19T05:31:41.353Z,100606.38
2023-05-19T05:32:14.075Z,100611.03
2023-05-19T05:32:46.590Z,100620.06
2023-05-19T05:33:35.704Z,100616.03
2023-05-19T05:34:10.894Z,100617.97
2023-05-19T05:34:43.391Z,100613.31
2023-05-19T05:35:19.631Z,100612.50
2023-05-19T05:35:51.877Z,100612.50
2023-05-19T05:36:24.311Z,100620.72
2023-05-19T05:36:59.151Z,100629.72
2023-05-19T05:37:31.547Z,100628.09
2023-05-19T05:38:03.904Z,100624.56
2023-05-19T05:38:39.179Z,100627.31
2023-05-19T05:39:11.378Z,100626.50
2023-05-19T05:39:45.957Z,100624.88
2023-05-19T05:40:22.023Z,100619.41
2023-05-19T05:40:54.331Z,100631.97
2023-05-19T05:41:27.589Z,100623.75
2023-05-19T05:42:02.556Z,100621.03
2023-05-19T05:42:35.207Z,100629.53
2023-05-19T05:43:07.807Z,100631.16
2023-05-19T05:43:47.779Z,100625.22
2023-05-19T05:44:19.975Z,100620.53
2023-05-19T05:44:55.039Z,100628.41
2023-05-19T05:45:27.409Z,100625.69
2023-05-19T05:46:00.790Z,100634.38
2023-05-19T05:46:36.027Z,100629.72
2023-05-19T05:47:09.986Z,100633.25
2023-05-19T05:47:42.826Z,100625.84
2023-05-19T05:48:18.624Z,100632.13
2023-05-19T05:48:51.539Z,100626.66
2023-05-19T05:49:27.628Z,100636.47
2023-05-19T05:50:03.866Z,100631.00
2023-05-19T05:50:37.380Z,100634.53
2023-05-19T05:51:11.071Z,100635.34
2023-05-19T05:51:57.928Z,100642.44
2023-05-19T05:52:41.419Z,100634.06
2023-05-19T05:53:21.605Z,100636.47
2023-05-19T05:53:58.768Z,100643.88
2023-05-19T05:54:40.490Z,100632.13
2023-05-19T05:55:15.351Z,100639.22
2023-05-19T05:55:48.483Z,100642.44
2023-05-19T05:56:25.362Z,100638.91
2023-05-19T05:57:00.181Z,100643.22
2023-05-19T05:57:35.567Z,100640.50
2023-05-19T05:58:11.313Z,100639.72
2023-05-19T05:58:44.184Z,100645.19
2023-05-19T05:59:17.043Z,100642.44
2023-05-19T05:59:52.205Z,100644.03
2023-05-19T06:00:25.297Z,100644.03
2023-05-19T06:00:58.796Z,100645.66
2023-05-19T06:01:35.872Z,100646.16
2023-05-19T06:02:10.291Z,100644.53
2023-05-19T06:02:43.868Z,100649.66
2023-05-19T06:03:22.403Z,100645.00
2023-05-19T06:03:54.896Z,100641.47
2023-05-19T06:04:31.614Z,100645.81
2023-05-19T06:05:06.706Z,100644.19
2023-05-19T06:05:39.458Z,100638.72
2023-05-19T06:06:14.789Z,100642.25
2023-05-19T06:06:47.110Z,100650.47
2023-05-19T06:07:24.554Z,100642.59
2023-05-19T06:07:59.815Z,100640.69
2023-05-19T06:08:33.768Z,100641.78
2023-05-19T06:09:06.006Z,100646.16
2023-05-19T06:09:41.189Z,100646.94
2023-05-19T06:10:15.187Z,100641.47
2023-05-19T06:10:50.155Z,100635.97
2023-05-19T06:11:22.643Z,100643.06
2023-05-19T06:11:54.875Z,100638.41
2023-05-19T06:12:29.687Z,100640.03
2023-05-19T06:13:01.934Z,100641.66
2023-05-19T06:13:34.368Z,100642.13
2023-05-19T06:14:09.195Z,100643.22
2023-05-19T06:15:13.837Z,100645.00
2023-05-19T06:16:08.346Z,100646.16
2023-05-19T06:16:45.150Z,100646.31
2023-05-19T06:17:17.716Z,100651.13
2023-05-19T06:17:52.542Z,100646.63
2023-05-19T06:18:24.820Z,100646.63
2023-05-19T06:18:59.195Z,100651.44
2023-05-19T06:19:36.728Z,100647.59
2023-05-19T06:20:10.392Z,100643.72
2023-05-19T06:20:42.681Z,100652.44
2023-05-19T06:21:17.902Z,100650.97
2023-05-19T06:21:50.076Z,100648.25
2023-05-19T06:22:22.280Z,100649.84
2023-05-19T06:22:57.058Z,100655.00
2023-05-19T06:23:32.028Z,100653.41
2023-05-19T06:24:05.839Z,100653.41
2023-05-19T06:24:40.608Z,100647.59
2023-05-19T06:25:14.750Z,100650.31
2023-05-19T06:25:47.926Z,100653.06
2023-05-19T06:26:23.127Z,100651.63
2023-05-19T06:26:55.577Z,100654.38
2023-05-19T06:27:27.786Z,100657.56
2023-05-19T06:28:02.630Z,100647.44
2023-05-19T06:28:34.836Z,100657.25
2023-05-19T06:29:07.080Z,100647.59
2023-05-19T06:29:42.133Z,100649.53
2023-05-19T06:30:15.263Z,100655.81
2023-05-19T06:31:16.649Z,100651.28
2023-05-19T06:31:58.374Z,100661.13
2023-05-19T06:32:33.367Z,100660.81
2023-05-19T06:33:05.999Z,100650.31
2023-05-19T06:33:38.415Z,100659.03
2023-05-19T06:34:16.546Z,100657.56
2023-05-19T06:34:54.846Z,100654.38
2023-05-19T06:35:29.906Z,100654.03
2023-05-19T06:36:02.230Z,100655.66
2023-05-19T06:36:35.986Z,100651.78
2023-05-19T06:37:11.416Z,100651.78
2023-05-19T06:37:43.671Z,100656.44
2023-05-19T06:38:16.270Z,100655.34
2023-05-19T06:38:51.193Z,100663.25
2023-05-19T06:39:23.479Z,100646.47
2023-05-19T06:39:58.264Z,100644.53
2023-05-19T06:40:30.803Z,100658.72
2023-05-19T06:41:03.389Z,100659.19
2023-05-19T06:41:38.280Z,100654.50
2023-05-19T06:42:12.752Z,100653.41
2023-05-19T06:43:16.386Z,100654.38
2023-05-19T06:44:00.104Z,100644.22
2023-05-19T06:44:35.543Z,100648.22
2023-05-19T06:45:11.713Z,100652.28